sensor_id;sensor_type;location;lat;lon;timestamp;P1;durP1;ratioP1;P2;durP2;ratioP2
68792;SDS011;55778;54.346;10.210;2022-07-22T00:00:17;7.18;;;2.05;;
68792;SDS011;55778;54.346;10.210;2022-07-22T00:02:42;6.50;;;2.20;;
68792;SDS011;55778;54.346;10.210;2022-07-22T00:05:08;5.45;;;1.95;;
68792;SDS011;55778;54.346;10.210;2022-07-22T00:07:35;6.60;;;2.30;;
68792;SDS011;55778;54.346;10.210;2022-07-22T00:10:01;8.82;;;2.08;;
68792;SDS011;55778;54.346;10.210;2022-07-22T00:12:28;6.03;;;1.80;;
68792;SDS011;55778;54.346;10.210;2022-07-22T00:14:53;8.25;;;2.00;;
68792;SDS011;55778;54.346;10.210;2022-07-22T00:17:18;9.23;;;2.03;;
68792;SDS011;55778;54.346;10.210;2022-07-22T00:19:44;5.47;;;2.05;;
68792;SDS011;55778;54.346;10.210;2022-07-22T00:22:09;6.53;;;2.00;;
68792;SDS011;55778;54.346;10.210;2022-07-22T00:24:34;6.07;;;1.67;;
68792;SDS011;55778;54.346;10.210;2022-07-22T00:27:00;7.05;;;1.83;;
68792;SDS011;55778;54.346;10.210;2022-07-22T00:29:25;5.75;;;1.85;;
68792;SDS011;55778;54.346;10.210;2022-07-22T00:31:51;6.15;;;1.77;;
68792;SDS011;55778;54.346;10.210;2022-07-22T00:34:16;4.90;;;1.42;;
68792;SDS011;55778;54.346;10.210;2022-07-22T00:36:42;5.53;;;2.17;;
68792;SDS011;55778;54.346;10.210;2022-07-22T00:39:07;7.90;;;1.98;;
68792;SDS011;55778;54.346;10.210;2022-07-22T00:41:32;6.72;;;1.90;;
68792;SDS011;55778;54.346;10.210;2022-07-22T00:43:59;5.85;;;1.90;;
68792;SDS011;55778;54.346;10.210;2022-07-22T00:46:26;6.18;;;1.90;;
68792;SDS011;55778;54.346;10.210;2022-07-22T00:48:53;6.63;;;2.20;;
68792;SDS011;55778;54.346;10.210;2022-07-22T00:51:19;6.95;;;2.30;;
68792;SDS011;55778;54.346;10.210;2022-07-22T00:53:47;7.40;;;2.30;;
68792;SDS011;55778;54.346;10.210;2022-07-22T00:56:13;8.32;;;2.03;;
68792;SDS011;55778;54.346;10.210;2022-07-22T00:58:40;7.20;;;2.13;;
68792;SDS011;55778;54.346;10.210;2022-07-22T01:01:05;8.48;;;2.60;;
68792;SDS011;55778;54.346;10.210;2022-07-22T01:03:31;9.80;;;2.75;;
68792;SDS011;55778;54.346;10.210;2022-07-22T01:05:57;7.93;;;2.80;;
68792;SDS011;55778;54.346;10.210;2022-07-22T01:08:22;9.10;;;2.45;;
68792;SDS011;55778;54.346;10.210;2022-07-22T01:10:48;6.47;;;1.85;;
68792;SDS011;55778;54.346;10.210;2022-07-22T01:13:13;7.18;;;2.28;;
68792;SDS011;55778;54.346;10.210;2022-07-22T01:15:39;6.85;;;2.40;;
68792;SDS011;55778;54.346;10.210;2022-07-22T01:18:05;8.73;;;2.65;;
68792;SDS011;55778;54.346;10.210;2022-07-22T01:20:30;6.18;;;2.38;;
68792;SDS011;55778;54.346;10.210;2022-07-22T01:22:56;6.38;;;2.00;;
68792;SDS011;55778;54.346;10.210;2022-07-22T01:25:21;6.32;;;2.60;;
68792;SDS011;55778;54.346;10.210;2022-07-22T01:27:47;8.10;;;2.85;;
68792;SDS011;55778;54.346;10.210;2022-07-22T01:30:12;9.73;;;2.42;;
68792;SDS011;55778;54.346;10.210;2022-07-22T01:32:38;8.55;;;2.47;;
68792;SDS011;55778;54.346;10.210;2022-07-22T01:35:03;5.35;;;2.05;;
68792;SDS011;55778;54.346;10.210;2022-07-22T01:37:29;5.90;;;2.08;;
68792;SDS011;55778;54.346;10.210;2022-07-22T01:39:58;5.20;;;2.10;;
68792;SDS011;55778;54.346;10.210;2022-07-22T01:42:23;6.80;;;1.65;;
68792;SDS011;55778;54.346;10.210;2022-07-22T01:44:49;5.07;;;1.70;;
68792;SDS011;55778;54.346;10.210;2022-07-22T01:47:14;6.20;;;1.90;;
68792;SDS011;55778;54.346;10.210;2022-07-22T01:49:39;5.70;;;2.10;;
68792;SDS011;55778;54.346;10.210;2022-07-22T01:52:05;6.50;;;1.98;;
68792;SDS011;55778;54.346;10.210;2022-07-22T01:54:31;6.63;;;2.20;;
68792;SDS011;55778;54.346;10.210;2022-07-22T01:56:56;4.50;;;2.03;;
68792;SDS011;55778;54.346;10.210;2022-07-22T01:59:22;5.32;;;1.60;;
68792;SDS011;55778;54.346;10.210;2022-07-22T02:01:47;7.18;;;1.90;;
68792;SDS011;55778;54.346;10.210;2022-07-22T02:04:12;9.50;;;2.28;;
68792;SDS011;55778;54.346;10.210;2022-07-22T02:06:38;7.45;;;2.42;;
68792;SDS011;55778;54.346;10.210;2022-07-22T02:09:03;4.57;;;1.63;;
68792;SDS011;55778;54.346;10.210;2022-07-22T02:11:29;3.60;;;1.70;;
68792;SDS011;55778;54.346;10.210;2022-07-22T02:13:54;7.40;;;2.00;;
68792;SDS011;55778;54.346;10.210;2022-07-22T02:16:20;4.57;;;1.75;;
68792;SDS011;55778;54.346;10.210;2022-07-22T02:18:46;2.65;;;1.45;;
68792;SDS011;55778;54.346;10.210;2022-07-22T02:21:11;4.43;;;2.10;;
68792;SDS011;55778;54.346;10.210;2022-07-22T02:23:37;3.95;;;1.85;;
68792;SDS011;55778;54.346;10.210;2022-07-22T02:26:02;4.00;;;1.70;;
68792;SDS011;55778;54.346;10.210;2022-07-22T02:28:27;5.63;;;2.20;;
68792;SDS011;55778;54.346;10.210;2022-07-22T02:30:53;7.93;;;2.20;;
68792;SDS011;55778;54.346;10.210;2022-07-22T02:33:19;9.13;;;2.05;;
68792;SDS011;55778;54.346;10.210;2022-07-22T02:35:45;7.68;;;2.17;;
68792;SDS011;55778;54.346;10.210;2022-07-22T02:38:11;5.32;;;1.90;;
68792;SDS011;55778;54.346;10.210;2022-07-22T02:40:36;6.10;;;2.58;;
68792;SDS011;55778;54.346;10.210;2022-07-22T02:43:02;10.10;;;2.72;;
68792;SDS011;55778;54.346;10.210;2022-07-22T02:45:31;8.80;;;2.70;;
68792;SDS011;55778;54.346;10.210;2022-07-22T02:47:56;11.30;;;2.78;;
68792;SDS011;55778;54.346;10.210;2022-07-22T02:50:22;8.07;;;2.40;;
68792;SDS011;55778;54.346;10.210;2022-07-22T02:52:48;8.30;;;2.63;;
68792;SDS011;55778;54.346;10.210;2022-07-22T02:55:13;10.05;;;2.72;;
68792;SDS011;55778;54.346;10.210;2022-07-22T02:57:39;11.75;;;2.85;;
68792;SDS011;55778;54.346;10.210;2022-07-22T03:00:05;7.65;;;2.90;;
68792;SDS011;55778;54.346;10.210;2022-07-22T03:02:33;12.23;;;3.10;;
68792;SDS011;55778;54.346;10.210;2022-07-22T03:04:59;11.55;;;2.80;;
68792;SDS011;55778;54.346;10.210;2022-07-22T03:07:24;8.48;;;2.65;;
68792;SDS011;55778;54.346;10.210;2022-07-22T03:09:49;8.98;;;3.00;;
68792;SDS011;55778;54.346;10.210;2022-07-22T03:12:15;8.52;;;2.67;;
68792;SDS011;55778;54.346;10.210;2022-07-22T03:14:40;7.68;;;2.70;;
68792;SDS011;55778;54.346;10.210;2022-07-22T03:17:06;9.82;;;2.72;;
68792;SDS011;55778;54.346;10.210;2022-07-22T03:19:31;6.35;;;2.55;;
68792;SDS011;55778;54.346;10.210;2022-07-22T03:21:56;9.93;;;2.67;;
68792;SDS011;55778;54.346;10.210;2022-07-22T03:24:22;7.30;;;2.55;;
68792;SDS011;55778;54.346;10.210;2022-07-22T03:26:47;7.97;;;2.67;;
68792;SDS011;55778;54.346;10.210;2022-07-22T03:29:12;8.07;;;2.67;;
68792;SDS011;55778;54.346;10.210;2022-07-22T03:31:38;9.38;;;2.63;;
68792;SDS011;55778;54.346;10.210;2022-07-22T03:34:04;12.48;;;3.00;;
68792;SDS011;55778;54.346;10.210;2022-07-22T03:36:29;9.27;;;2.80;;
68792;SDS011;55778;54.346;10.210;2022-07-22T03:38:55;9.63;;;2.67;;
68792;SDS011;55778;54.346;10.210;2022-07-22T03:41:21;8.80;;;3.10;;
68792;SDS011;55778;54.346;10.210;2022-07-22T03:43:47;6.90;;;2.58;;
68792;SDS011;55778;54.346;10.210;2022-07-22T03:46:12;11.02;;;3.35;;
68792;SDS011;55778;54.346;10.210;2022-07-22T03:48:39;11.13;;;2.90;;
68792;SDS011;55778;54.346;10.210;2022-07-22T03:51:04;11.57;;;3.63;;
68792;SDS011;55778;54.346;10.210;2022-07-22T03:53:30;10.02;;;3.08;;
68792;SDS011;55778;54.346;10.210;2022-07-22T03:55:55;10.57;;;3.03;;
68792;SDS011;55778;54.346;10.210;2022-07-22T03:58:21;11.05;;;3.10;;
68792;SDS011;55778;54.346;10.210;2022-07-22T04:00:46;14.57;;;3.00;;
68792;SDS011;55778;54.346;10.210;2022-07-22T04:03:11;11.48;;;3.50;;
68792;SDS011;55778;54.346;10.210;2022-07-22T04:05:37;13.13;;;3.20;;
68792;SDS011;55778;54.346;10.210;2022-07-22T04:08:02;11.90;;;3.75;;
68792;SDS011;55778;54.346;10.210;2022-07-22T04:10:28;9.25;;;3.42;;
68792;SDS011;55778;54.346;10.210;2022-07-22T04:12:53;11.10;;;3.38;;
68792;SDS011;55778;54.346;10.210;2022-07-22T04:15:18;12.00;;;3.28;;
68792;SDS011;55778;54.346;10.210;2022-07-22T04:17:44;11.10;;;3.05;;
68792;SDS011;55778;54.346;10.210;2022-07-22T04:20:10;12.85;;;3.63;;
68792;SDS011;55778;54.346;10.210;2022-07-22T04:22:35;11.38;;;3.03;;
68792;SDS011;55778;54.346;10.210;2022-07-22T04:25:00;10.90;;;3.25;;
68792;SDS011;55778;54.346;10.210;2022-07-22T04:27:26;7.07;;;3.60;;
68792;SDS011;55778;54.346;10.210;2022-07-22T04:29:51;12.27;;;3.58;;
68792;SDS011;55778;54.346;10.210;2022-07-22T04:32:16;11.35;;;3.10;;
68792;SDS011;55778;54.346;10.210;2022-07-22T04:34:42;14.65;;;3.22;;
68792;SDS011;55778;54.346;10.210;2022-07-22T04:37:08;8.82;;;3.00;;
68792;SDS011;55778;54.346;10.210;2022-07-22T04:39:33;16.83;;;3.17;;
68792;SDS011;55778;54.346;10.210;2022-07-22T04:41:59;10.80;;;3.00;;
68792;SDS011;55778;54.346;10.210;2022-07-22T04:44:24;13.00;;;3.35;;
68792;SDS011;55778;54.346;10.210;2022-07-22T04:46:49;9.68;;;2.90;;
68792;SDS011;55778;54.346;10.210;2022-07-22T04:49:15;9.82;;;3.05;;
68792;SDS011;55778;54.346;10.210;2022-07-22T04:51:40;10.95;;;2.88;;
68792;SDS011;55778;54.346;10.210;2022-07-22T04:54:05;10.30;;;2.63;;
68792;SDS011;55778;54.346;10.210;2022-07-22T04:56:31;12.25;;;3.08;;
68792;SDS011;55778;54.346;10.210;2022-07-22T04:58:56;10.02;;;2.58;;
68792;SDS011;55778;54.346;10.210;2022-07-22T05:01:22;11.32;;;2.78;;
68792;SDS011;55778;54.346;10.210;2022-07-22T05:03:47;11.32;;;3.63;;
68792;SDS011;55778;54.346;10.210;2022-07-22T05:06:12;17.27;;;3.17;;
68792;SDS011;55778;54.346;10.210;2022-07-22T05:08:38;13.82;;;3.65;;
68792;SDS011;55778;54.346;10.210;2022-07-22T05:11:04;13.63;;;3.20;;
68792;SDS011;55778;54.346;10.210;2022-07-22T05:13:30;14.07;;;3.00;;
68792;SDS011;55778;54.346;10.210;2022-07-22T05:15:55;15.00;;;3.38;;
68792;SDS011;55778;54.346;10.210;2022-07-22T05:18:20;12.98;;;3.45;;
68792;SDS011;55778;54.346;10.210;2022-07-22T05:20:46;17.02;;;3.90;;
68792;SDS011;55778;54.346;10.210;2022-07-22T05:23:11;11.82;;;3.95;;
68792;SDS011;55778;54.346;10.210;2022-07-22T05:25:37;17.75;;;4.30;;
68792;SDS011;55778;54.346;10.210;2022-07-22T05:28:02;15.25;;;4.10;;
68792;SDS011;55778;54.346;10.210;2022-07-22T05:30:28;12.50;;;3.90;;
68792;SDS011;55778;54.346;10.210;2022-07-22T05:32:54;9.23;;;3.22;;
68792;SDS011;55778;54.346;10.210;2022-07-22T05:35:19;14.85;;;4.03;;
68792;SDS011;55778;54.346;10.210;2022-07-22T05:37:45;12.32;;;3.30;;
68792;SDS011;55778;54.346;10.210;2022-07-22T05:40:11;10.98;;;3.45;;
68792;SDS011;55778;54.346;10.210;2022-07-22T05:42:39;11.82;;;3.10;;
68792;SDS011;55778;54.346;10.210;2022-07-22T05:45:06;10.93;;;3.40;;
68792;SDS011;55778;54.346;10.210;2022-07-22T05:47:31;13.93;;;3.95;;
68792;SDS011;55778;54.346;10.210;2022-07-22T05:49:57;10.80;;;3.20;;
68792;SDS011;55778;54.346;10.210;2022-07-22T05:52:23;14.35;;;3.20;;
68792;SDS011;55778;54.346;10.210;2022-07-22T05:54:48;17.48;;;3.22;;
68792;SDS011;55778;54.346;10.210;2022-07-22T05:57:13;13.82;;;3.10;;
68792;SDS011;55778;54.346;10.210;2022-07-22T05:59:39;11.60;;;2.95;;
68792;SDS011;55778;54.346;10.210;2022-07-22T06:02:04;13.88;;;3.22;;
68792;SDS011;55778;54.346;10.210;2022-07-22T06:04:30;13.43;;;3.53;;
68792;SDS011;55778;54.346;10.210;2022-07-22T06:06:55;14.10;;;2.97;;
68792;SDS011;55778;54.346;10.210;2022-07-22T06:09:21;14.82;;;3.35;;
68792;SDS011;55778;54.346;10.210;2022-07-22T06:11:46;17.55;;;3.03;;
68792;SDS011;55778;54.346;10.210;2022-07-22T06:14:12;12.18;;;3.38;;
68792;SDS011;55778;54.346;10.210;2022-07-22T06:16:37;12.18;;;3.00;;
68792;SDS011;55778;54.346;10.210;2022-07-22T06:19:03;13.80;;;3.25;;
68792;SDS011;55778;54.346;10.210;2022-07-22T06:21:28;11.98;;;3.20;;
68792;SDS011;55778;54.346;10.210;2022-07-22T06:23:54;11.63;;;3.05;;
68792;SDS011;55778;54.346;10.210;2022-07-22T06:26:19;11.80;;;2.60;;
68792;SDS011;55778;54.346;10.210;2022-07-22T06:28:45;9.27;;;2.63;;
68792;SDS011;55778;54.346;10.210;2022-07-22T06:31:11;14.25;;;2.78;;
68792;SDS011;55778;54.346;10.210;2022-07-22T06:33:36;13.13;;;2.78;;
68792;SDS011;55778;54.346;10.210;2022-07-22T06:36:02;9.50;;;2.45;;
68792;SDS011;55778;54.346;10.210;2022-07-22T06:38:28;13.40;;;3.03;;
68792;SDS011;55778;54.346;10.210;2022-07-22T06:40:53;14.15;;;3.20;;
68792;SDS011;55778;54.346;10.210;2022-07-22T06:43:19;14.40;;;3.05;;
68792;SDS011;55778;54.346;10.210;2022-07-22T06:45:46;9.18;;;2.03;;
68792;SDS011;55778;54.346;10.210;2022-07-22T06:48:11;13.70;;;3.30;;
68792;SDS011;55778;54.346;10.210;2022-07-22T06:50:36;10.15;;;2.75;;
68792;SDS011;55778;54.346;10.210;2022-07-22T06:53:02;13.27;;;2.92;;
68792;SDS011;55778;54.346;10.210;2022-07-22T06:55:28;15.80;;;3.20;;
68792;SDS011;55778;54.346;10.210;2022-07-22T06:57:53;16.73;;;3.10;;
68792;SDS011;55778;54.346;10.210;2022-07-22T07:00:19;10.93;;;2.67;;
68792;SDS011;55778;54.346;10.210;2022-07-22T07:02:44;12.10;;;3.03;;
68792;SDS011;55778;54.346;10.210;2022-07-22T07:05:10;9.50;;;2.30;;
68792;SDS011;55778;54.346;10.210;2022-07-22T07:07:36;16.27;;;3.50;;
68792;SDS011;55778;54.346;10.210;2022-07-22T07:10:02;11.88;;;2.92;;
68792;SDS011;55778;54.346;10.210;2022-07-22T07:12:28;15.13;;;3.40;;
68792;SDS011;55778;54.346;10.210;2022-07-22T07:14:54;6.65;;;1.80;;
68792;SDS011;55778;54.346;10.210;2022-07-22T07:17:19;8.65;;;2.47;;
68792;SDS011;55778;54.346;10.210;2022-07-22T07:19:45;12.57;;;2.80;;
68792;SDS011;55778;54.346;10.210;2022-07-22T07:22:10;11.82;;;3.47;;
68792;SDS011;55778;54.346;10.210;2022-07-22T07:24:35;8.82;;;2.85;;
68792;SDS011;55778;54.346;10.210;2022-07-22T07:27:01;9.85;;;3.13;;
68792;SDS011;55778;54.346;10.210;2022-07-22T07:29:26;10.63;;;2.63;;
68792;SDS011;55778;54.346;10.210;2022-07-22T07:31:52;11.50;;;2.78;;
68792;SDS011;55778;54.346;10.210;2022-07-22T07:34:17;11.25;;;2.70;;
68792;SDS011;55778;54.346;10.210;2022-07-22T07:36:43;15.60;;;2.53;;
68792;SDS011;55778;54.346;10.210;2022-07-22T07:39:08;12.40;;;2.90;;
68792;SDS011;55778;54.346;10.210;2022-07-22T07:41:36;10.98;;;2.47;;
68792;SDS011;55778;54.346;10.210;2022-07-22T07:44:02;8.20;;;3.00;;
68792;SDS011;55778;54.346;10.210;2022-07-22T07:46:27;9.98;;;2.50;;
68792;SDS011;55778;54.346;10.210;2022-07-22T07:48:53;8.85;;;2.47;;
68792;SDS011;55778;54.346;10.210;2022-07-22T07:51:18;7.07;;;2.05;;
68792;SDS011;55778;54.346;10.210;2022-07-22T07:53:45;9.35;;;2.50;;
68792;SDS011;55778;54.346;10.210;2022-07-22T07:56:12;10.07;;;2.10;;
68792;SDS011;55778;54.346;10.210;2022-07-22T07:58:38;12.70;;;2.42;;
68792;SDS011;55778;54.346;10.210;2022-07-22T08:01:04;10.32;;;2.88;;
68792;SDS011;55778;54.346;10.210;2022-07-22T08:03:29;10.65;;;2.40;;
68792;SDS011;55778;54.346;10.210;2022-07-22T08:05:55;9.40;;;2.15;;
68792;SDS011;55778;54.346;10.210;2022-07-22T08:08:20;11.90;;;2.35;;
68792;SDS011;55778;54.346;10.210;2022-07-22T08:10:46;14.15;;;2.67;;
68792;SDS011;55778;54.346;10.210;2022-07-22T08:13:11;8.70;;;2.13;;
68792;SDS011;55778;54.346;10.210;2022-07-22T08:15:36;8.43;;;2.70;;
68792;SDS011;55778;54.346;10.210;2022-07-22T08:18:02;7.57;;;2.38;;
68792;SDS011;55778;54.346;10.210;2022-07-22T08:20:28;10.68;;;2.70;;
68792;SDS011;55778;54.346;10.210;2022-07-22T08:22:54;15.35;;;2.78;;
68792;SDS011;55778;54.346;10.210;2022-07-22T08:25:20;8.23;;;2.03;;
68792;SDS011;55778;54.346;10.210;2022-07-22T08:27:46;5.90;;;2.03;;
68792;SDS011;55778;54.346;10.210;2022-07-22T08:30:12;10.10;;;2.78;;
68792;SDS011;55778;54.346;10.210;2022-07-22T08:32:37;9.57;;;2.17;;
68792;SDS011;55778;54.346;10.210;2022-07-22T08:35:03;6.93;;;2.25;;
68792;SDS011;55778;54.346;10.210;2022-07-22T08:37:32;10.70;;;2.60;;
68792;SDS011;55778;54.346;10.210;2022-07-22T08:39:58;7.63;;;2.58;;
68792;SDS011;55778;54.346;10.210;2022-07-22T08:42:26;5.87;;;2.10;;
68792;SDS011;55778;54.346;10.210;2022-07-22T08:44:52;9.80;;;2.30;;
68792;SDS011;55778;54.346;10.210;2022-07-22T08:47:22;7.43;;;2.00;;
68792;SDS011;55778;54.346;10.210;2022-07-22T08:49:48;9.18;;;1.92;;
68792;SDS011;55778;54.346;10.210;2022-07-22T08:52:14;13.18;;;2.30;;
68792;SDS011;55778;54.346;10.210;2022-07-22T08:54:40;7.90;;;1.83;;
68792;SDS011;55778;54.346;10.210;2022-07-22T08:57:05;7.90;;;1.90;;
68792;SDS011;55778;54.346;10.210;2022-07-22T08:59:31;6.68;;;1.50;;
68792;SDS011;55778;54.346;10.210;2022-07-22T09:07:25;8.00;;;1.50;;
68792;SDS011;55778;54.346;10.210;2022-07-22T09:09:53;7.10;;;1.70;;
68792;SDS011;55778;54.346;10.210;2022-07-22T09:12:19;5.63;;;1.90;;
68792;SDS011;55778;54.346;10.210;2022-07-22T09:14:46;6.57;;;1.83;;
68792;SDS011;55778;54.346;10.210;2022-07-22T09:17:22;5.63;;;1.73;;
68792;SDS011;55778;54.346;10.210;2022-07-22T09:19:48;6.63;;;1.42;;
68792;SDS011;55778;54.346;10.210;2022-07-22T09:22:13;6.60;;;1.40;;
68792;SDS011;55778;54.346;10.210;2022-07-22T09:24:39;9.10;;;1.65;;
68792;SDS011;55778;54.346;10.210;2022-07-22T09:27:04;4.07;;;1.40;;
68792;SDS011;55778;54.346;10.210;2022-07-22T09:29:31;8.82;;;1.88;;
68792;SDS011;55778;54.346;10.210;2022-07-22T09:31:56;4.60;;;1.02;;
68792;SDS011;55778;54.346;10.210;2022-07-22T09:34:27;5.03;;;1.42;;
68792;SDS011;55778;54.346;10.210;2022-07-22T09:36:58;8.43;;;1.90;;
68792;SDS011;55778;54.346;10.210;2022-07-22T09:39:28;7.55;;;1.58;;
68792;SDS011;55778;54.346;10.210;2022-07-22T09:42:05;4.68;;;1.30;;
68792;SDS011;55778;54.346;10.210;2022-07-22T09:44:32;9.30;;;1.60;;
68792;SDS011;55778;54.346;10.210;2022-07-22T09:46:57;6.40;;;1.60;;
68792;SDS011;55778;54.346;10.210;2022-07-22T09:52:05;8.77;;;1.40;;
68792;SDS011;55778;54.346;10.210;2022-07-22T09:54:31;5.18;;;1.00;;
68792;SDS011;55778;54.346;10.210;2022-07-22T09:56:57;6.78;;;1.20;;
68792;SDS011;55778;54.346;10.210;2022-07-22T09:59:23;4.55;;;1.10;;
68792;SDS011;55778;54.346;10.210;2022-07-22T10:01:50;8.48;;;1.38;;
68792;SDS011;55778;54.346;10.210;2022-07-22T10:04:19;8.63;;;1.48;;
68792;SDS011;55778;54.346;10.210;2022-07-22T10:06:46;5.70;;;1.30;;
68792;SDS011;55778;54.346;10.210;2022-07-22T10:09:13;8.52;;;1.50;;
68792;SDS011;55778;54.346;10.210;2022-07-22T10:11:40;7.53;;;1.40;;
68792;SDS011;55778;54.346;10.210;2022-07-22T10:14:11;4.55;;;1.35;;
68792;SDS011;55778;54.346;10.210;2022-07-22T10:16:38;10.02;;;1.92;;
68792;SDS011;55778;54.346;10.210;2022-07-22T10:19:06;5.18;;;1.15;;
68792;SDS011;55778;54.346;10.210;2022-07-22T10:21:33;6.68;;;1.80;;
68792;SDS011;55778;54.346;10.210;2022-07-22T10:24:20;6.68;;;2.33;;
68792;SDS011;55778;54.346;10.210;2022-07-22T10:26:55;8.75;;;2.08;;
68792;SDS011;55778;54.346;10.210;2022-07-22T10:34:40;4.75;;;1.17;;
68792;SDS011;55778;54.346;10.210;2022-07-22T10:40:10;6.90;;;2.03;;
68792;SDS011;55778;54.346;10.210;2022-07-22T10:48:10;8.65;;;2.08;;
68792;SDS011;55778;54.346;10.210;2022-07-22T10:53:15;3.45;;;1.00;;
68792;SDS011;55778;54.346;10.210;2022-07-22T10:55:59;7.07;;;1.73;;
68792;SDS011;55778;54.346;10.210;2022-07-22T11:01:02;7.60;;;1.27;;
68792;SDS011;55778;54.346;10.210;2022-07-22T11:03:30;6.43;;;1.42;;
68792;SDS011;55778;54.346;10.210;2022-07-22T11:06:06;6.50;;;1.58;;
68792;SDS011;55778;54.346;10.210;2022-07-22T11:08:43;4.03;;;1.30;;
68792;SDS011;55778;54.346;10.210;2022-07-22T11:11:12;8.48;;;1.48;;
68792;SDS011;55778;54.346;10.210;2022-07-22T11:13:39;7.10;;;1.55;;
68792;SDS011;55778;54.346;10.210;2022-07-22T11:16:25;6.57;;;1.27;;
68792;SDS011;55778;54.346;10.210;2022-07-22T11:18:55;6.57;;;1.20;;
68792;SDS011;55778;54.346;10.210;2022-07-22T11:21:22;4.65;;;1.17;;
68792;SDS011;55778;54.346;10.210;2022-07-22T11:23:50;2.25;;;1.05;;
68792;SDS011;55778;54.346;10.210;2022-07-22T11:26:18;6.13;;;1.10;;
68792;SDS011;55778;54.346;10.210;2022-07-22T11:28:48;7.43;;;1.25;;
68792;SDS011;55778;54.346;10.210;2022-07-22T11:31:15;4.43;;;1.00;;
68792;SDS011;55778;54.346;10.210;2022-07-22T11:33:43;4.55;;;1.10;;
68792;SDS011;55778;54.346;10.210;2022-07-22T11:36:09;6.18;;;1.23;;
68792;SDS011;55778;54.346;10.210;2022-07-22T11:41:11;2.92;;;1.10;;
68792;SDS011;55778;54.346;10.210;2022-07-22T11:43:47;7.72;;;1.80;;
68792;SDS011;55778;54.346;10.210;2022-07-22T11:46:14;5.72;;;1.10;;
68792;SDS011;55778;54.346;10.210;2022-07-22T11:48:41;4.32;;;1.05;;
68792;SDS011;55778;54.346;10.210;2022-07-22T11:51:08;5.45;;;1.02;;
68792;SDS011;55778;54.346;10.210;2022-07-22T11:53:39;3.08;;;0.80;;
68792;SDS011;55778;54.346;10.210;2022-07-22T11:56:06;4.65;;;1.27;;
68792;SDS011;55778;54.346;10.210;2022-07-22T11:58:42;5.18;;;1.00;;
68792;SDS011;55778;54.346;10.210;2022-07-22T12:01:10;6.43;;;1.13;;
68792;SDS011;55778;54.346;10.210;2022-07-22T12:03:38;6.97;;;1.10;;
68792;SDS011;55778;54.346;10.210;2022-07-22T12:06:07;4.05;;;1.23;;
68792;SDS011;55778;54.346;10.210;2022-07-22T12:08:38;6.90;;;1.20;;
68792;SDS011;55778;54.346;10.210;2022-07-22T12:11:06;6.25;;;1.20;;
68792;SDS011;55778;54.346;10.210;2022-07-22T12:13:32;4.35;;;1.05;;
68792;SDS011;55778;54.346;10.210;2022-07-22T12:15:58;4.38;;;0.95;;
68792;SDS011;55778;54.346;10.210;2022-07-22T12:18:24;4.05;;;1.20;;
68792;SDS011;55778;54.346;10.210;2022-07-22T12:20:52;4.45;;;1.48;;
68792;SDS011;55778;54.346;10.210;2022-07-22T12:23:23;4.90;;;1.10;;
68792;SDS011;55778;54.346;10.210;2022-07-22T12:25:57;4.80;;;1.13;;
68792;SDS011;55778;54.346;10.210;2022-07-22T12:28:25;1.92;;;0.82;;
68792;SDS011;55778;54.346;10.210;2022-07-22T12:30:53;3.95;;;1.23;;
68792;SDS011;55778;54.346;10.210;2022-07-22T12:33:21;4.68;;;1.08;;
68792;SDS011;55778;54.346;10.210;2022-07-22T12:35:58;5.10;;;1.20;;
68792;SDS011;55778;54.346;10.210;2022-07-22T12:38:27;6.43;;;1.60;;
68792;SDS011;55778;54.346;10.210;2022-07-22T12:40:54;4.22;;;0.90;;
68792;SDS011;55778;54.346;10.210;2022-07-22T12:43:23;3.78;;;1.30;;
68792;SDS011;55778;54.346;10.210;2022-07-22T12:45:49;4.55;;;0.98;;
68792;SDS011;55778;54.346;10.210;2022-07-22T12:48:15;6.47;;;1.00;;
68792;SDS011;55778;54.346;10.210;2022-07-22T12:51:04;3.87;;;1.20;;
68792;SDS011;55778;54.346;10.210;2022-07-22T12:53:29;8.18;;;1.33;;
68792;SDS011;55778;54.346;10.210;2022-07-22T12:55:58;5.27;;;0.93;;
68792;SDS011;55778;54.346;10.210;2022-07-22T12:58:28;6.05;;;1.38;;
68792;SDS011;55778;54.346;10.210;2022-07-22T13:00:56;4.97;;;1.10;;
68792;SDS011;55778;54.346;10.210;2022-07-22T13:03:23;4.80;;;1.20;;
68792;SDS011;55778;54.346;10.210;2022-07-22T13:05:53;5.85;;;1.25;;
68792;SDS011;55778;54.346;10.210;2022-07-22T13:08:21;4.85;;;1.00;;
68792;SDS011;55778;54.346;10.210;2022-07-22T13:10:48;5.38;;;1.33;;
68792;SDS011;55778;54.346;10.210;2022-07-22T13:13:17;2.50;;;1.02;;
68792;SDS011;55778;54.346;10.210;2022-07-22T13:15:43;6.70;;;1.27;;
68792;SDS011;55778;54.346;10.210;2022-07-22T13:18:12;3.08;;;0.77;;
68792;SDS011;55778;54.346;10.210;2022-07-22T13:20:37;4.47;;;1.00;;
68792;SDS011;55778;54.346;10.210;2022-07-22T13:23:03;4.65;;;1.15;;
68792;SDS011;55778;54.346;10.210;2022-07-22T13:25:29;2.85;;;0.93;;
68792;SDS011;55778;54.346;10.210;2022-07-22T13:27:56;2.90;;;1.02;;
68792;SDS011;55778;54.346;10.210;2022-07-22T13:30:22;4.82;;;0.90;;
68792;SDS011;55778;54.346;10.210;2022-07-22T13:32:48;3.10;;;1.02;;
68792;SDS011;55778;54.346;10.210;2022-07-22T13:35:13;4.93;;;1.30;;
68792;SDS011;55778;54.346;10.210;2022-07-22T13:37:39;3.30;;;0.85;;
68792;SDS011;55778;54.346;10.210;2022-07-22T13:40:05;3.67;;;1.25;;
68792;SDS011;55778;54.346;10.210;2022-07-22T13:42:31;6.18;;;1.00;;
68792;SDS011;55778;54.346;10.210;2022-07-22T13:44:56;4.22;;;1.08;;
68792;SDS011;55778;54.346;10.210;2022-07-22T13:47:21;2.42;;;1.00;;
68792;SDS011;55778;54.346;10.210;2022-07-22T13:49:47;1.98;;;0.80;;
68792;SDS011;55778;54.346;10.210;2022-07-22T13:52:14;5.03;;;1.00;;
68792;SDS011;55778;54.346;10.210;2022-07-22T13:54:40;2.85;;;1.02;;
68792;SDS011;55778;54.346;10.210;2022-07-22T13:57:05;5.93;;;1.13;;
68792;SDS011;55778;54.346;10.210;2022-07-22T13:59:31;3.30;;;0.85;;
68792;SDS011;55778;54.346;10.210;2022-07-22T14:01:57;3.65;;;1.02;;
68792;SDS011;55778;54.346;10.210;2022-07-22T14:04:23;4.65;;;1.02;;
68792;SDS011;55778;54.346;10.210;2022-07-22T14:06:49;2.67;;;0.80;;
68792;SDS011;55778;54.346;10.210;2022-07-22T14:09:15;5.35;;;1.17;;
68792;SDS011;55778;54.346;10.210;2022-07-22T14:11:40;4.55;;;1.13;;
68792;SDS011;55778;54.346;10.210;2022-07-22T14:14:06;3.03;;;1.33;;
68792;SDS011;55778;54.346;10.210;2022-07-22T14:16:32;3.78;;;1.02;;
68792;SDS011;55778;54.346;10.210;2022-07-22T14:21:30;4.38;;;1.00;;
68792;SDS011;55778;54.346;10.210;2022-07-22T14:23:56;6.32;;;1.63;;
68792;SDS011;55778;54.346;10.210;2022-07-22T14:26:21;6.57;;;1.17;;
68792;SDS011;55778;54.346;10.210;2022-07-22T14:28:47;4.70;;;0.95;;
68792;SDS011;55778;54.346;10.210;2022-07-22T14:31:13;5.55;;;1.38;;
68792;SDS011;55778;54.346;10.210;2022-07-22T14:33:38;2.90;;;1.00;;
68792;SDS011;55778;54.346;10.210;2022-07-22T14:36:03;4.13;;;0.98;;
68792;SDS011;55778;54.346;10.210;2022-07-22T14:38:29;8.07;;;1.75;;
68792;SDS011;55778;54.346;10.210;2022-07-22T14:40:55;2.22;;;0.90;;
68792;SDS011;55778;54.346;10.210;2022-07-22T14:43:20;3.35;;;0.80;;
68792;SDS011;55778;54.346;10.210;2022-07-22T14:45:46;4.07;;;1.20;;
68792;SDS011;55778;54.346;10.210;2022-07-22T14:48:11;3.15;;;1.20;;
68792;SDS011;55778;54.346;10.210;2022-07-22T14:50:36;5.35;;;1.10;;
68792;SDS011;55778;54.346;10.210;2022-07-22T14:53:02;3.50;;;1.10;;
68792;SDS011;55778;54.346;10.210;2022-07-22T14:55:27;5.82;;;1.25;;
68792;SDS011;55778;54.346;10.210;2022-07-22T14:57:53;5.63;;;1.20;;